Billings, MT (59101)

10:43 AM MDT on October 30, 2014 (GMT -0600)
Downtown Billings | Change Station
CLOSE
Current Station
Personal Weather Station
Location: Billings, MT
Elevation: 3127 ft
Nearby Weather Stations

Elev 3127 ft 45.78 °N, 108.50 °W | Updated 53 minutes ago

Clear
Clear
38.7 °F
Feels Like 36 °F
N
3.4
Wind Variable Wind from SSW
Gusts 6.3 mph

Today
High -- | Low -- °F
--% Chance of Precip.
Yesterday
High -- | Low -- °F
Precip. -- in
7:51 AM 6:03 PM
Waxing Crescent, 45% visible
Pressure 30.36 in
Visibility 10.0 miles
Clouds Few 9500 ft
Few 24000 ft
Windchill 36 °F
Dew Point 28 °F
Humidity 65%
Rainfall -999.00 in
Snow Depth Not available.
UV 1 out of 12
Pollen .80 out of 12
Air Quality Not available.
Flu Activity Not available.
METAR KBIL 301553Z 23010KT 10SM FEW095 FEW240 05/M03 A3033 RMK AO2 SLP279 T00501033

More Conditions Fewer Conditions

Pressure 30.36 in
Visibility 10.0 miles
Clouds Few 9500 ft
Few 24000 ft
Windchill 36 °F
Dew Point 28 °F
Humidity 65%
Rainfall -999.00 in
Snow Depth Not available.
UV 1 out of 12
Pollen .80 out of 12
Air Quality Not available.
Flu Activity Not available.
METAR KBIL 301553Z 23010KT 10SM FEW095 FEW240 05/M03 A3033 RMK AO2 SLP279 T00501033

More Conditions Fewer Conditions

10-Day Weather Forecast

Almanac

Astronomy

Oct. 30, 2014 Rise Set
Actual Time
Civil Twilight
Nautical Twilight
Astronomical Twilight
Moon
Length of Visible Light
Length of Day
Tomorrow will be .
, % of the Moon is Illuminated

Today's Extremes

State Highs State Lows

Community

WunderPhotos

Upload Photos

1,766,402 photos uploaded!

WunderBlogs® & News

Nearby

Air Quality

  Air Quality AQ Index Pollutant
Not available.

Snow Depth

Station Depth Elevation

Earthquake Activity

City Distance Mag. Time & Date
Minimum magnitude displayed is 2.5.

Coastal Water Temperatures

Place Temperature

Nearby Weather Stations